createdAt,value
2022-09-15T00:00:28.343Z,19.26
2022-09-15T00:01:00.904Z,19.22
2022-09-15T00:01:32.978Z,19.18
2022-09-15T00:02:04.680Z,19.19
2022-09-15T00:02:36.378Z,19.22
2022-09-15T00:03:07.969Z,19.20
2022-09-15T00:03:40.337Z,19.11
2022-09-15T00:04:12.098Z,19.04
2022-09-15T00:04:43.608Z,19.08
2022-09-15T00:05:15.305Z,19.11
2022-09-15T00:05:47.911Z,19.11
2022-09-15T00:06:20.187Z,19.13
2022-09-15T00:06:53.074Z,19.15
2022-09-15T00:07:24.585Z,19.12
2022-09-15T00:07:56.098Z,19.08
2022-09-15T00:08:27.666Z,19.08
2022-09-15T00:08:59.373Z,19.11
2022-09-15T00:09:31.164Z,19.13
2022-09-15T00:10:05.301Z,19.13
2022-09-15T00:10:36.896Z,19.16
2022-09-15T00:11:17.308Z,19.12
2022-09-15T00:11:48.827Z,19.12
2022-09-15T00:12:20.421Z,19.11
2022-09-15T00:12:51.967Z,19.05
2022-09-15T00:13:23.698Z,18.99
2022-09-15T00:13:56.794Z,18.99
2022-09-15T00:14:28.319Z,19.01
2022-09-15T00:15:00.018Z,19.02
2022-09-15T00:15:31.540Z,19.02
2022-09-15T00:16:04.115Z,19.02
2022-09-15T00:16:35.740Z,19.06
2022-09-15T00:17:07.345Z,19.13
2022-09-15T00:17:38.929Z,19.06
2022-09-15T00:18:10.877Z,19.04
2022-09-15T00:18:43.391Z,19.06
2022-09-15T00:19:15.420Z,19.04
2022-09-15T00:19:47.025Z,18.96
2022-09-15T00:20:20.554Z,18.98
2022-09-15T00:20:52.439Z,18.98
2022-09-15T00:21:27.594Z,18.95
2022-09-15T00:21:59.116Z,18.99
2022-09-15T00:22:30.637Z,18.96
2022-09-15T00:23:02.157Z,18.92
2022-09-15T00:23:34.150Z,18.94
2022-09-15T00:24:06.469Z,18.94
2022-09-15T00:24:38.003Z,18.92
2022-09-15T00:25:09.956Z,18.92
2022-09-15T00:25:45.153Z,18.99
2022-09-15T00:26:20.769Z,18.98
2022-09-15T00:26:52.305Z,18.96
2022-09-15T00:27:23.843Z,18.94
2022-09-15T00:27:55.366Z,18.95
2022-09-15T00:28:26.932Z,18.98
2022-09-15T00:29:00.077Z,18.94
2022-09-15T00:29:31.609Z,18.94
2022-09-15T00:30:04.501Z,18.96
2022-09-15T00:30:47.599Z,18.94
2022-09-15T00:31:22.532Z,18.94
2022-09-15T00:31:54.121Z,18.92
2022-09-15T00:32:25.868Z,18.96
2022-09-15T00:32:57.377Z,18.96
2022-09-15T00:33:28.913Z,18.96
2022-09-15T00:34:05.037Z,18.98
2022-09-15T00:34:36.585Z,18.94
2022-09-15T00:35:08.510Z,18.96
2022-09-15T00:35:41.439Z,18.95
2022-09-15T00:36:14.444Z,18.99
2022-09-15T00:36:46.015Z,19.04
2022-09-15T00:37:18.168Z,19.01
2022-09-15T00:37:49.667Z,19.01
2022-09-15T00:38:21.249Z,18.95
2022-09-15T00:38:52.839Z,18.94
2022-09-15T00:39:24.493Z,18.96
2022-09-15T00:39:56.051Z,18.94
2022-09-15T00:40:27.676Z,18.99
2022-09-15T00:41:00.464Z,18.98
2022-09-15T00:41:32.193Z,19.02
2022-09-15T00:42:04.205Z,19.08
2022-09-15T00:42:35.731Z,19.04
2022-09-15T00:43:10.155Z,19.06
2022-09-15T00:44:04.165Z,19.09
2022-09-15T00:44:35.625Z,19.11
2022-09-15T00:45:14.439Z,19.06
2022-09-15T00:45:46.143Z,19.08
2022-09-15T00:46:23.883Z,19.09
2022-09-15T00:47:17.822Z,19.09
2022-09-15T00:47:49.189Z,19.13
2022-09-15T00:48:21.988Z,19.15
2022-09-15T00:49:26.223Z,19.19
2022-09-15T00:50:03.199Z,19.23
2022-09-15T00:50:36.199Z,19.20
2022-09-15T00:51:09.717Z,19.18
2022-09-15T00:51:45.337Z,19.19
2022-09-15T00:52:51.586Z,19.22
2022-09-15T00:53:24.925Z,19.23
2022-09-15T00:53:57.265Z,19.19
2022-09-15T00:54:49.716Z,19.20
2022-09-15T00:55:28.300Z,19.16
2022-09-15T00:56:02.723Z,19.16
2022-09-15T00:56:36.393Z,19.20
2022-09-15T00:57:12.948Z,19.22
2022-09-15T00:58:11.861Z,19.22
2022-09-15T00:58:48.522Z,19.26
2022-09-15T00:59:24.265Z,19.26
2022-09-15T00:59:57.689Z,19.26
2022-09-15T01:00:29.347Z,19.27
2022-09-15T01:01:03.380Z,19.27
2022-09-15T01:01:35.638Z,19.26
2022-09-15T01:02:21.149Z,19.23
2022-09-15T01:02:53.248Z,19.23
2022-09-15T01:03:26.359Z,19.18
2022-09-15T01:03:58.309Z,19.19
2022-09-15T01:04:30.056Z,19.22
2022-09-15T01:05:05.459Z,19.20
2022-09-15T01:05:42.725Z,19.22
2022-09-15T01:06:21.749Z,19.15
2022-09-15T01:06:58.567Z,19.13
2022-09-15T01:07:39.454Z,19.16
2022-09-15T01:08:20.862Z,19.16
2022-09-15T01:09:01.636Z,19.09
2022-09-15T01:09:49.893Z,19.12
2022-09-15T01:10:47.705Z,19.15
2022-09-15T01:11:19.531Z,19.15
2022-09-15T01:11:51.187Z,19.19
2022-09-15T01:12:25.053Z,19.19
2022-09-15T01:13:02.887Z,19.20
2022-09-15T01:13:34.393Z,19.25
2022-09-15T01:14:05.909Z,19.20
2022-09-15T01:14:37.445Z,19.22
2022-09-15T01:15:09.772Z,19.25
2022-09-15T01:16:03.903Z,19.27
2022-09-15T01:17:08.028Z,19.25
2022-09-15T01:17:51.786Z,19.27
2022-09-15T01:18:53.289Z,19.27
2022-09-15T01:20:16.074Z,19.26
2022-09-15T01:20:57.605Z,19.23
2022-09-15T01:21:29.094Z,19.25
2022-09-15T01:22:03.441Z,19.25
2022-09-15T01:22:49.643Z,19.27
2022-09-15T01:23:21.147Z,19.27
2022-09-15T01:23:58.839Z,19.29
2022-09-15T01:24:51.185Z,19.26
2022-09-15T01:25:28.305Z,19.29
2022-09-15T01:26:14.913Z,19.25
2022-09-15T01:27:37.589Z,19.22
2022-09-15T01:28:39.872Z,19.25
2022-09-15T01:29:29.802Z,19.19
2022-09-15T01:30:23.918Z,19.22
2022-09-15T01:31:10.853Z,19.20
2022-09-15T01:32:10.317Z,19.22
2022-09-15T01:33:05.955Z,19.18
2022-09-15T01:33:42.876Z,19.18
2022-09-15T01:34:18.308Z,19.19
2022-09-15T01:35:02.598Z,19.20
2022-09-15T01:35:52.745Z,19.20
2022-09-15T01:36:50.589Z,19.22
2022-09-15T01:37:29.595Z,19.22
2022-09-15T01:38:39.881Z,19.25
2022-09-15T01:39:16.897Z,19.19
2022-09-15T01:39:52.733Z,19.20
2022-09-15T01:40:28.730Z,19.18
2022-09-15T01:41:06.766Z,19.18
2022-09-15T01:41:52.233Z,19.19
2022-09-15T01:42:25.510Z,19.22
2022-09-15T01:42:59.511Z,19.16
2022-09-15T01:43:34.837Z,19.12
2022-09-15T01:44:13.694Z,19.12
2022-09-15T01:44:51.813Z,19.13
2022-09-15T01:45:31.159Z,19.13
2022-09-15T01:46:03.751Z,19.15
2022-09-15T01:46:40.562Z,19.13
2022-09-15T01:47:16.913Z,19.15
2022-09-15T01:47:52.178Z,19.16
2022-09-15T01:48:27.401Z,19.15
2022-09-15T01:49:02.024Z,19.15
2022-09-15T01:49:51.305Z,19.15
2022-09-15T01:50:28.337Z,19.15
2022-09-15T01:51:02.969Z,19.16
2022-09-15T01:51:36.884Z,19.15
2022-09-15T01:52:08.645Z,19.16
2022-09-15T01:52:44.871Z,19.16
2022-09-15T01:53:20.973Z,19.12
2022-09-15T01:53:54.621Z,19.16
2022-09-15T01:54:32.921Z,19.16
2022-09-15T01:55:12.950Z,19.16
2022-09-15T01:56:08.737Z,19.12
2022-09-15T01:56:41.957Z,19.12
2022-09-15T01:57:13.578Z,19.11
2022-09-15T01:57:45.498Z,19.08
2022-09-15T01:58:17.043Z,19.09
2022-09-15T01:58:51.061Z,19.11
2022-09-15T01:59:22.875Z,19.11
2022-09-15T01:59:56.175Z,19.12
2022-09-15T02:01:32.112Z,19.09
2022-09-15T02:02:42.599Z,19.06
2022-09-15T02:03:32.104Z,19.08
2022-09-15T02:04:12.814Z,19.08
2022-09-15T02:04:59.515Z,18.98
2022-09-15T02:05:36.960Z,19.01
2022-09-15T02:06:16.927Z,19.02
2022-09-15T02:06:58.458Z,18.99
2022-09-15T02:07:51.957Z,18.98
2022-09-15T02:08:31.552Z,18.99
2022-09-15T02:09:28.090Z,18.95
2022-09-15T02:10:11.502Z,18.95
2022-09-15T02:10:48.852Z,18.99
2022-09-15T02:11:26.551Z,18.98
2022-09-15T02:12:11.026Z,18.99
2022-09-15T02:12:50.657Z,19.02
2022-09-15T02:13:39.160Z,19.02
2022-09-15T02:14:17.376Z,19.06
2022-09-15T02:15:03.467Z,18.99
2022-09-15T02:15:48.117Z,18.98
2022-09-15T02:16:22.951Z,19.01
2022-09-15T02:16:54.723Z,18.99
2022-09-15T02:17:29.202Z,18.98
2022-09-15T02:18:05.850Z,19.01
2022-09-15T02:19:08.857Z,18.98
2022-09-15T02:19:47.503Z,18.99
2022-09-15T02:20:33.079Z,19.01
2022-09-15T02:21:10.922Z,18.98
2022-09-15T02:21:54.865Z,18.98
2022-09-15T02:22:31.479Z,18.99
2022-09-15T02:23:16.081Z,18.98
2022-09-15T02:23:51.222Z,18.98
2022-09-15T02:24:28.821Z,19.01
2022-09-15T02:25:05.763Z,18.96
2022-09-15T02:25:51.598Z,18.99
2022-09-15T02:26:27.788Z,18.99
2022-09-15T02:27:01.781Z,19.02
2022-09-15T02:27:38.919Z,18.98
2022-09-15T02:28:12.977Z,18.95
2022-09-15T02:28:47.093Z,18.95
2022-09-15T02:29:20.783Z,18.95
2022-09-15T02:29:56.603Z,18.94
2022-09-15T02:30:29.521Z,18.94
2022-09-15T02:31:03.837Z,18.94
2022-09-15T02:31:40.591Z,18.94
2022-09-15T02:32:13.822Z,18.92
2022-09-15T02:32:54.410Z,18.96
2022-09-15T02:33:31.183Z,18.91
2022-09-15T02:34:09.159Z,18.92
2022-09-15T02:34:47.303Z,18.96
2022-09-15T02:35:19.341Z,18.95
2022-09-15T02:35:52.673Z,18.95
2022-09-15T02:36:26.783Z,18.95
2022-09-15T02:36:59.158Z,18.94
2022-09-15T02:37:31.052Z,18.94
2022-09-15T02:38:06.502Z,18.95
2022-09-15T02:38:44.003Z,18.85
2022-09-15T02:39:19.499Z,18.91
2022-09-15T02:39:58.072Z,18.91
2022-09-15T02:40:30.466Z,18.94
2022-09-15T02:41:02.894Z,18.89
2022-09-15T02:41:37.272Z,18.89
2022-09-15T02:42:10.355Z,18.91
2022-09-15T02:42:53.392Z,18.95
2022-09-15T02:43:24.909Z,18.95
2022-09-15T02:43:56.510Z,18.94
2022-09-15T02:44:30.645Z,18.91
2022-09-15T02:45:02.658Z,18.94
2022-09-15T02:45:34.303Z,18.95
2022-09-15T02:46:06.087Z,18.92
2022-09-15T02:46:39.160Z,18.91
2022-09-15T02:47:10.719Z,18.95
2022-09-15T02:47:42.223Z,18.96
2022-09-15T02:48:13.831Z,18.91
2022-09-15T02:48:45.359Z,18.88
2022-09-15T02:49:17.044Z,18.79
2022-09-15T02:49:48.524Z,18.76
2022-09-15T02:50:20.708Z,18.76
2022-09-15T02:50:52.251Z,18.74
2022-09-15T02:51:23.918Z,18.85
2022-09-15T02:51:55.559Z,18.81
2022-09-15T02:52:27.104Z,18.85
2022-09-15T02:52:58.596Z,18.85
2022-09-15T02:53:30.097Z,18.87
2022-09-15T02:54:01.777Z,18.84
2022-09-15T02:54:33.365Z,18.83
2022-09-15T02:55:05.249Z,18.84
2022-09-15T02:55:36.798Z,18.87
2022-09-15T02:56:08.373Z,18.88
2022-09-15T02:56:39.921Z,18.89
2022-09-15T02:57:11.765Z,18.87
2022-09-15T02:57:43.349Z,18.87
2022-09-15T02:58:14.850Z,18.85
2022-09-15T02:58:46.538Z,18.84
2022-09-15T02:59:18.061Z,18.79
2022-09-15T03:00:08.012Z,18.76
2022-09-15T03:00:39.579Z,18.81
2022-09-15T03:01:15.687Z,18.81
2022-09-15T03:01:47.371Z,18.83
2022-09-15T03:02:20.637Z,18.75
2022-09-15T03:02:54.393Z,18.76
2022-09-15T03:03:25.920Z,18.75
2022-09-15T03:03:58.042Z,18.79
2022-09-15T03:04:29.571Z,18.78
2022-09-15T03:05:01.119Z,18.68
2022-09-15T03:05:32.651Z,18.69
2022-09-15T03:06:21.302Z,18.64
2022-09-15T03:06:52.784Z,18.68
2022-09-15T03:07:24.971Z,18.67
2022-09-15T03:07:57.428Z,18.64
2022-09-15T03:08:28.911Z,18.61
2022-09-15T03:09:03.888Z,18.64
2022-09-15T03:09:35.390Z,18.65
2022-09-15T03:10:08.578Z,18.67
2022-09-15T03:10:40.236Z,18.67
2022-09-15T03:11:12.183Z,18.68
2022-09-15T03:11:43.675Z,18.67
2022-09-15T03:12:15.194Z,18.69
2022-09-15T03:12:49.593Z,18.68
2022-09-15T03:13:21.228Z,18.72
2022-09-15T03:13:57.405Z,18.72
2022-09-15T03:14:29.700Z,18.76
2022-09-15T03:15:01.196Z,18.76
2022-09-15T03:15:33.371Z,18.76
2022-09-15T03:16:13.005Z,18.81
2022-09-15T03:16:44.549Z,18.81
2022-09-15T03:17:16.855Z,18.81
2022-09-15T03:17:49.103Z,18.79
2022-09-15T03:18:20.594Z,18.83
2022-09-15T03:18:54.706Z,18.81
2022-09-15T03:19:26.762Z,18.81
2022-09-15T03:19:58.258Z,18.81
2022-09-15T03:20:30.326Z,18.83
2022-09-15T03:21:02.149Z,18.85
2022-09-15T03:21:33.722Z,18.87
2022-09-15T03:22:05.233Z,18.83
2022-09-15T03:22:36.934Z,18.81
2022-09-15T03:23:08.767Z,18.85
2022-09-15T03:23:41.167Z,18.85
2022-09-15T03:24:15.344Z,18.85
2022-09-15T03:24:46.844Z,18.85
2022-09-15T03:25:18.669Z,18.88
2022-09-15T03:25:50.164Z,18.87
2022-09-15T03:26:21.701Z,18.87
2022-09-15T03:26:53.471Z,18.84
2022-09-15T03:27:25.015Z,18.87
2022-09-15T03:27:56.584Z,18.87
2022-09-15T03:28:28.409Z,18.87
2022-09-15T03:28:59.891Z,18.88
2022-09-15T03:29:31.470Z,18.87
2022-09-15T03:30:05.147Z,18.87
2022-09-15T03:30:36.723Z,18.84
2022-09-15T03:31:09.574Z,18.88
2022-09-15T03:31:41.303Z,18.89
2022-09-15T03:32:12.891Z,18.87
2022-09-15T03:32:44.477Z,18.91
2022-09-15T03:33:15.986Z,18.91
2022-09-15T03:33:47.864Z,18.89
2022-09-15T03:34:19.382Z,18.88
2022-09-15T03:34:52.447Z,18.91
2022-09-15T03:35:26.736Z,18.92
2022-09-15T03:35:58.640Z,18.87
2022-09-15T03:36:30.938Z,18.89
2022-09-15T03:37:02.500Z,18.88
2022-09-15T03:37:34.690Z,18.88
2022-09-15T03:38:06.570Z,18.87
2022-09-15T03:38:38.074Z,18.85
2022-09-15T03:39:11.760Z,18.85
2022-09-15T03:39:43.390Z,18.84
2022-09-15T03:40:15.039Z,18.85
2022-09-15T03:40:58.275Z,18.85
2022-09-15T03:41:29.976Z,18.87
2022-09-15T03:42:01.481Z,18.79
2022-09-15T03:42:33.033Z,18.79
2022-09-15T03:43:04.534Z,18.76
2022-09-15T03:43:36.766Z,18.75
2022-09-15T03:44:08.291Z,18.71
2022-09-15T03:44:39.873Z,18.74
2022-09-15T03:45:11.389Z,18.71
2022-09-15T03:45:42.940Z,18.72
2022-09-15T03:46:14.660Z,18.74
2022-09-15T03:46:46.294Z,18.75
2022-09-15T03:47:17.844Z,18.71
2022-09-15T03:47:49.354Z,18.71
2022-09-15T03:48:21.038Z,18.72
2022-09-15T03:48:52.538Z,18.74
2022-09-15T03:49:25.468Z,18.72
2022-09-15T03:49:56.979Z,18.71
2022-09-15T03:50:28.480Z,18.76
2022-09-15T03:51:00.030Z,18.78
2022-09-15T03:51:31.539Z,18.75
2022-09-15T03:52:03.402Z,18.78
2022-09-15T03:52:34.934Z,18.81
2022-09-15T03:53:06.426Z,18.81
2022-09-15T03:53:39.846Z,18.78
2022-09-15T03:54:11.752Z,18.78
2022-09-15T03:54:43.862Z,18.78
2022-09-15T03:55:15.410Z,18.81
2022-09-15T03:55:48.394Z,18.76
2022-09-15T03:56:26.684Z,18.79
2022-09-15T03:56:58.206Z,18.81
2022-09-15T03:57:29.710Z,18.81
2022-09-15T03:58:01.219Z,18.84
2022-09-15T03:58:32.731Z,18.79
2022-09-15T03:59:06.479Z,18.81
2022-09-15T03:59:38.014Z,18.81
2022-09-15T04:00:10.185Z,18.78
2022-09-15T04:00:41.909Z,18.83
2022-09-15T04:01:13.917Z,18.78
2022-09-15T04:01:46.508Z,18.79
2022-09-15T04:02:19.208Z,18.79
2022-09-15T04:02:50.788Z,18.79
2022-09-15T04:03:23.046Z,18.79
2022-09-15T04:03:55.122Z,18.78
2022-09-15T04:04:26.764Z,18.79
2022-09-15T04:04:58.282Z,18.81
2022-09-15T04:05:29.962Z,18.72
2022-09-15T04:06:01.486Z,18.71
2022-09-15T04:06:33.143Z,18.69
2022-09-15T04:07:04.654Z,18.71
2022-09-15T04:07:36.355Z,18.74
2022-09-15T04:08:12.069Z,18.71
2022-09-15T04:08:44.058Z,18.72
2022-09-15T04:09:15.857Z,18.71
2022-09-15T04:09:47.401Z,18.74
2022-09-15T04:10:18.978Z,18.74
2022-09-15T04:10:50.548Z,18.76
2022-09-15T04:11:22.845Z,18.74
2022-09-15T04:11:54.362Z,18.75
2022-09-15T04:12:25.870Z,18.76
2022-09-15T04:12:57.539Z,18.78
2022-09-15T04:13:29.076Z,18.78
2022-09-15T04:14:00.620Z,18.78
2022-09-15T04:14:32.218Z,18.81
2022-09-15T04:15:04.495Z,18.79
2022-09-15T04:15:36.016Z,18.83
2022-09-15T04:16:10.651Z,18.87
2022-09-15T04:16:42.247Z,18.85
2022-09-15T04:17:15.516Z,18.79
2022-09-15T04:17:47.734Z,18.83
2022-09-15T04:18:19.257Z,18.78
2022-09-15T04:18:52.137Z,18.84
2022-09-15T04:19:23.624Z,18.83
2022-09-15T04:19:55.616Z,18.83
2022-09-15T04:20:27.315Z,18.84
2022-09-15T04:21:05.607Z,18.87
2022-09-15T04:21:37.171Z,18.89
2022-09-15T04:22:08.811Z,18.92
2022-09-15T04:22:40.564Z,18.96
2022-09-15T04:23:12.050Z,19.01
2022-09-15T04:23:44.351Z,19.06
2022-09-15T04:24:15.935Z,19.11
2022-09-15T04:24:50.782Z,19.23
2022-09-15T04:25:22.339Z,19.26
2022-09-15T04:25:58.226Z,19.27
2022-09-15T04:26:31.772Z,19.25
2022-09-15T04:27:03.452Z,19.27
2022-09-15T04:27:36.320Z,19.29
2022-09-15T04:28:07.812Z,19.29
2022-09-15T04:28:40.611Z,19.32
2022-09-15T04:29:15.765Z,19.29
2022-09-15T04:29:51.149Z,19.29
2022-09-15T04:30:23.034Z,19.33
2022-09-15T04:31:03.846Z,19.39
2022-09-15T04:31:35.465Z,19.29
2022-09-15T04:32:07.359Z,19.34
2022-09-15T04:32:38.919Z,19.32
2022-09-15T04:33:10.425Z,19.34
2022-09-15T04:33:43.402Z,19.30
2022-09-15T04:34:14.896Z,19.32
2022-09-15T04:34:46.767Z,19.33
2022-09-15T04:35:18.266Z,19.36
2022-09-15T04:35:49.812Z,19.39
2022-09-15T04:36:24.454Z,19.36
2022-09-15T04:36:55.959Z,19.37
2022-09-15T04:37:27.516Z,19.36
2022-09-15T04:38:00.139Z,19.37
2022-09-15T04:38:31.856Z,19.34
2022-09-15T04:39:06.556Z,19.37
2022-09-15T04:39:38.726Z,19.37
2022-09-15T04:40:11.358Z,19.43
2022-09-15T04:40:43.016Z,19.45
2022-09-15T04:41:15.342Z,19.45
2022-09-15T04:41:46.924Z,19.46
2022-09-15T04:42:20.614Z,19.43
2022-09-15T04:42:52.814Z,19.45
2022-09-15T04:43:25.880Z,19.43
2022-09-15T04:43:57.509Z,19.43
2022-09-15T04:44:29.143Z,19.40
2022-09-15T04:45:00.667Z,19.43
2022-09-15T04:45:33.408Z,19.42
2022-09-15T04:46:05.373Z,19.43
2022-09-15T04:46:37.010Z,19.45
2022-09-15T04:47:08.536Z,19.45
2022-09-15T04:47:40.116Z,19.42
2022-09-15T04:48:11.672Z,19.42
2022-09-15T04:48:44.007Z,19.43
2022-09-15T04:49:15.523Z,19.45
2022-09-15T04:49:47.104Z,19.45
2022-09-15T04:50:19.075Z,19.40
2022-09-15T04:50:51.019Z,19.45
2022-09-15T04:51:23.460Z,19.47
2022-09-15T04:51:55.215Z,19.45
2022-09-15T04:52:26.703Z,19.49
2022-09-15T04:52:58.193Z,19.49
2022-09-15T04:53:30.452Z,19.52
2022-09-15T04:54:02.052Z,19.50
2022-09-15T04:54:34.685Z,19.49
2022-09-15T04:55:06.368Z,19.47
2022-09-15T04:55:38.449Z,19.49
2022-09-15T04:56:13.015Z,19.49
2022-09-15T04:56:45.628Z,19.50
2022-09-15T04:57:17.138Z,19.53
2022-09-15T04:57:48.763Z,19.56
2022-09-15T04:58:20.260Z,19.54
2022-09-15T04:58:56.486Z,19.54
2022-09-15T04:59:31.140Z,19.57
2022-09-15T05:00:06.465Z,19.57
2022-09-15T05:00:43.547Z,19.60
2022-09-15T05:01:17.856Z,19.54
2022-09-15T05:01:49.467Z,19.54
2022-09-15T05:02:21.259Z,19.54
2022-09-15T05:02:53.632Z,19.59
2022-09-15T05:03:25.231Z,19.63
2022-09-15T05:03:57.169Z,19.60
2022-09-15T05:04:28.700Z,19.62
2022-09-15T05:05:00.239Z,19.57
2022-09-15T05:05:34.016Z,19.56
2022-09-15T05:06:07.442Z,19.57
2022-09-15T05:06:39.206Z,19.60
2022-09-15T05:07:10.878Z,19.59
2022-09-15T05:07:42.413Z,19.60
2022-09-15T05:08:13.947Z,19.62
2022-09-15T05:08:49.694Z,19.63
2022-09-15T05:09:21.371Z,19.62
2022-09-15T05:09:53.237Z,19.62
2022-09-15T05:10:24.763Z,19.60
2022-09-15T05:11:04.987Z,19.60
2022-09-15T05:11:36.496Z,19.63
2022-09-15T05:12:08.035Z,19.66
2022-09-15T05:12:39.591Z,19.67
2022-09-15T05:13:11.133Z,19.69
2022-09-15T05:13:43.291Z,19.64
2022-09-15T05:14:14.905Z,19.64
2022-09-15T05:14:46.411Z,19.64
2022-09-15T05:15:18.102Z,19.66
2022-09-15T05:15:49.638Z,19.64
2022-09-15T05:16:23.454Z,19.63
2022-09-15T05:16:55.137Z,19.67
2022-09-15T05:17:26.934Z,19.66
2022-09-15T05:17:58.576Z,19.69
2022-09-15T05:18:30.631Z,19.80
2022-09-15T05:19:04.636Z,19.85
2022-09-15T05:19:36.209Z,19.80
2022-09-15T05:20:08.081Z,19.84
2022-09-15T05:20:39.570Z,19.85
2022-09-15T05:21:13.327Z,20.05
2022-09-15T05:21:44.926Z,20.11
2022-09-15T05:22:16.421Z,20.11
2022-09-15T05:22:47.964Z,20.11
2022-09-15T05:23:19.443Z,20.07
2022-09-15T05:23:52.045Z,20.01
2022-09-15T05:24:23.769Z,19.98
2022-09-15T05:24:55.281Z,20.12
2022-09-15T05:25:26.845Z,20.12
2022-09-15T05:25:59.697Z,20.18
2022-09-15T05:26:31.746Z,20.04
2022-09-15T05:27:03.421Z,20.02
2022-09-15T05:27:34.917Z,19.93
2022-09-15T05:28:06.691Z,19.94
2022-09-15T05:28:38.817Z,19.94
2022-09-15T05:29:10.382Z,19.91
2022-09-15T05:29:41.891Z,19.91
2022-09-15T05:30:36.870Z,19.90
2022-09-15T05:31:17.893Z,19.97
2022-09-15T05:31:49.502Z,19.93
2022-09-15T05:32:21.214Z,19.91
2022-09-15T05:32:53.542Z,19.95
2022-09-15T05:33:25.138Z,19.97
2022-09-15T05:33:57.011Z,19.90
2022-09-15T05:34:28.515Z,19.90
2022-09-15T05:35:00.014Z,19.97
2022-09-15T05:35:31.506Z,19.94
2022-09-15T05:36:03.961Z,20.00
2022-09-15T05:36:35.479Z,19.94
2022-09-15T05:37:07.027Z,19.90
2022-09-15T05:37:38.509Z,19.90
2022-09-15T05:38:10.001Z,19.90
2022-09-15T05:38:41.864Z,19.91
2022-09-15T05:39:13.510Z,19.93
2022-09-15T05:39:45.487Z,19.94
2022-09-15T05:40:17.258Z,19.94
2022-09-15T05:40:49.113Z,19.98
2022-09-15T05:41:21.030Z,19.97
2022-09-15T05:41:52.526Z,20.00
2022-09-15T05:42:24.129Z,20.02
2022-09-15T05:42:55.639Z,20.02
2022-09-15T05:43:30.813Z,20.08
2022-09-15T05:44:02.673Z,20.10
2022-09-15T05:44:34.533Z,20.15
2022-09-15T05:45:06.719Z,20.20
2022-09-15T05:45:38.281Z,20.18
2022-09-15T05:46:10.537Z,20.24
2022-09-15T05:46:42.129Z,20.29
2022-09-15T05:47:13.750Z,20.38
2022-09-15T05:47:45.250Z,20.35
2022-09-15T05:48:16.749Z,20.38
2022-09-15T05:48:48.305Z,20.35
2022-09-15T05:49:19.849Z,20.39
2022-09-15T05:49:51.333Z,20.41
2022-09-15T05:50:23.074Z,20.36
2022-09-15T05:50:55.780Z,20.42
2022-09-15T05:51:27.766Z,20.43
2022-09-15T05:51:59.402Z,20.45
2022-09-15T05:52:30.896Z,20.41
2022-09-15T05:53:02.727Z,20.36
2022-09-15T05:53:35.683Z,20.33
2022-09-15T05:54:07.546Z,20.31
2022-09-15T05:54:39.078Z,20.35
2022-09-15T05:55:10.633Z,20.38
2022-09-15T05:55:42.434Z,20.46
2022-09-15T05:56:15.856Z,20.57
2022-09-15T05:56:50.077Z,20.52
2022-09-15T05:57:21.585Z,20.53
2022-09-15T05:57:53.734Z,20.62
2022-09-15T05:58:26.296Z,20.55
2022-09-15T05:58:57.863Z,20.52
2022-09-15T05:59:29.374Z,20.56
2022-09-15T06:00:01.055Z,20.57
2022-09-15T06:00:33.563Z,20.53
2022-09-15T06:01:07.964Z,20.55
2022-09-15T06:01:39.755Z,20.56
2022-09-15T06:02:11.801Z,20.51
2022-09-15T06:02:43.484Z,20.53
2022-09-15T06:03:16.244Z,20.59
2022-09-15T06:03:48.464Z,20.60
2022-09-15T06:04:19.953Z,20.63
2022-09-15T06:04:51.702Z,20.57
2022-09-15T06:05:23.281Z,20.60
2022-09-15T06:06:02.225Z,20.66
2022-09-15T06:06:33.831Z,20.79
2022-09-15T06:07:05.366Z,20.80
2022-09-15T06:07:36.933Z,20.76
2022-09-15T06:08:08.600Z,20.75
2022-09-15T06:08:47.982Z,20.91
2022-09-15T06:09:19.842Z,20.89
2022-09-15T06:09:51.392Z,20.91
2022-09-15T06:10:24.949Z,21.01
2022-09-15T06:11:04.247Z,21.11
2022-09-15T06:11:35.882Z,21.10
2022-09-15T06:12:07.548Z,21.11
2022-09-15T06:12:39.065Z,21.08
2022-09-15T06:13:10.647Z,21.12
2022-09-15T06:13:42.770Z,21.15
2022-09-15T06:14:14.434Z,21.20
2022-09-15T06:14:50.367Z,21.15
2022-09-15T06:15:22.926Z,21.15
2022-09-15T06:15:54.560Z,21.21
2022-09-15T06:16:26.781Z,21.12
2022-09-15T06:16:58.390Z,21.20
2022-09-15T06:17:32.638Z,21.28
2022-09-15T06:18:04.199Z,21.23
2022-09-15T06:18:37.314Z,21.24
2022-09-15T06:19:08.906Z,21.26
2022-09-15T06:19:40.539Z,21.28
2022-09-15T06:20:12.300Z,21.30
2022-09-15T06:20:43.836Z,21.38
2022-09-15T06:21:20.365Z,21.34
2022-09-15T06:21:52.236Z,21.37
2022-09-15T06:22:24.185Z,21.34
2022-09-15T06:22:56.561Z,21.38
2022-09-15T06:23:28.174Z,21.45
2022-09-15T06:24:01.976Z,21.48
2022-09-15T06:24:33.467Z,21.49
2022-09-15T06:25:05.962Z,21.54
2022-09-15T06:25:37.480Z,21.57
2022-09-15T06:26:14.666Z,21.57
2022-09-15T06:26:46.186Z,21.63
2022-09-15T06:27:17.730Z,21.66
2022-09-15T06:27:50.232Z,21.69
2022-09-15T06:28:21.853Z,21.65
2022-09-15T06:28:55.983Z,21.65
2022-09-15T06:29:28.800Z,21.62
2022-09-15T06:30:00.312Z,21.68
2022-09-15T06:30:31.839Z,21.66
2022-09-15T06:31:03.899Z,21.58
2022-09-15T06:31:35.882Z,21.58
2022-09-15T06:32:07.474Z,21.59
2022-09-15T06:32:39.182Z,21.63
2022-09-15T06:33:10.684Z,21.65
2022-09-15T06:33:44.181Z,21.66
2022-09-15T06:34:15.832Z,21.71
2022-09-15T06:34:47.676Z,21.63
2022-09-15T06:35:19.227Z,21.58
2022-09-15T06:35:50.712Z,21.49
2022-09-15T06:36:24.754Z,21.62
2022-09-15T06:36:56.266Z,21.65
2022-09-15T06:37:27.758Z,21.62
2022-09-15T06:37:59.289Z,21.66
2022-09-15T06:38:31.247Z,21.66
2022-09-15T06:39:03.088Z,21.69
2022-09-15T06:39:35.205Z,21.69
2022-09-15T06:40:07.989Z,21.72
2022-09-15T06:40:39.521Z,21.69
2022-09-15T06:41:12.134Z,21.68
2022-09-15T06:42:01.162Z,21.61
2022-09-15T06:42:34.043Z,21.68
2022-09-15T06:43:05.679Z,21.79
2022-09-15T06:43:37.947Z,21.78
2022-09-15T06:44:10.039Z,21.76
2022-09-15T06:44:41.569Z,21.75
2022-09-15T06:45:13.065Z,21.68
2022-09-15T06:45:44.601Z,21.74
2022-09-15T06:46:21.830Z,21.66
2022-09-15T06:46:53.697Z,21.63
2022-09-15T06:47:25.214Z,21.69
2022-09-15T06:48:20.256Z,21.66
2022-09-15T06:48:48.983Z,21.68
2022-09-15T06:49:21.776Z,21.58
2022-09-15T06:49:54.795Z,21.54
2022-09-15T06:50:26.377Z,21.63
2022-09-15T06:50:58.406Z,21.58
2022-09-15T06:51:35.288Z,21.52
2022-09-15T06:52:06.849Z,21.54
2022-09-15T06:52:38.363Z,21.57
2022-09-15T06:53:10.358Z,21.52
2022-09-15T06:53:41.867Z,21.45
2022-09-15T06:54:15.982Z,21.52
2022-09-15T06:54:47.514Z,21.47
2022-09-15T06:55:19.413Z,21.51
2022-09-15T06:55:50.957Z,21.52
2022-09-15T06:56:23.896Z,21.49
2022-09-15T06:56:55.438Z,21.55
2022-09-15T06:57:26.952Z,21.61
2022-09-15T06:57:58.875Z,21.66
2022-09-15T06:58:31.095Z,21.72
2022-09-15T06:59:03.922Z,21.71
2022-09-15T06:59:35.435Z,21.71
2022-09-15T07:00:07.885Z,21.69
2022-09-15T07:00:39.489Z,21.68
2022-09-15T07:01:13.810Z,21.69
2022-09-15T07:01:45.313Z,21.74
2022-09-15T07:02:16.934Z,21.78
2022-09-15T07:02:51.835Z,21.78
2022-09-15T07:03:23.441Z,21.81
2022-09-15T07:03:56.569Z,21.72
2022-09-15T07:04:28.075Z,21.68
2022-09-15T07:04:59.579Z,21.62
2022-09-15T07:05:31.131Z,21.66
2022-09-15T07:06:04.199Z,21.74
2022-09-15T07:06:37.902Z,21.85
2022-09-15T07:07:09.561Z,21.99
2022-09-15T07:07:41.147Z,21.96
2022-09-15T07:08:12.679Z,21.89
2022-09-15T07:08:45.367Z,21.99
2022-09-15T07:09:17.134Z,22.05
2022-09-15T07:09:49.275Z,22.10
2022-09-15T07:10:20.881Z,22.14
2022-09-15T07:10:52.469Z,22.26
2022-09-15T07:11:24.722Z,22.88
2022-09-15T07:11:56.322Z,23.38
2022-09-15T07:12:27.887Z,23.63
2022-09-15T07:13:01.991Z,23.74
2022-09-15T07:13:33.531Z,24.12
2022-09-15T07:14:05.245Z,24.15
2022-09-15T07:14:36.841Z,24.42
2022-09-15T07:15:09.197Z,24.83
2022-09-15T07:15:40.742Z,25.31
2022-09-15T07:16:13.143Z,25.35
2022-09-15T07:16:44.788Z,25.30
2022-09-15T07:17:16.403Z,25.40
2022-09-15T07:17:47.909Z,25.30
2022-09-15T07:18:21.803Z,25.06
2022-09-15T07:18:56.907Z,24.96
2022-09-15T07:19:28.468Z,24.86
2022-09-15T07:20:01.222Z,24.73
2022-09-15T07:20:33.214Z,24.68
2022-09-15T07:21:11.410Z,24.39
2022-09-15T07:21:42.945Z,24.21
2022-09-15T07:22:14.530Z,23.96